Time;durP1;ratioP1;P1;durP2;ratioP2;P2;SDS_P1;SDS_P2;PMS_P1;PMS_P2;Temp;Humidity;BMP_temperature;BMP_pressure;BME280_temperature;BME280_humidity;BME280_pressure;Samples;Min_cycle;Max_cycle;Signal;HPM_P1;HPM_P2
2024/03/17 00:01:17;;;;;;;6.37;5.77;;;9.50;99.90;;;;;;4956905;29;20934;-59
2024/03/17 00:03:43;;;;;;;8.40;6.33;;;9.50;99.90;;;;;;4957183;29;20412;-59
2024/03/17 00:06:09;;;;;;;7.50;6.40;;;9.50;99.90;;;;;;4939565;29;20625;-58
2024/03/17 00:08:35;;;;;;;8.20;6.67;;;9.50;99.90;;;;;;4957268;29;20184;-59
2024/03/17 00:11:01;;;;;;;7.43;6.73;;;9.40;99.90;;;;;;4956346;29;20431;-59
2024/03/17 00:13:27;;;;;;;6.70;6.17;;;9.40;99.90;;;;;;4957057;29;20242;-58
2024/03/17 00:15:52;;;;;;;7.30;6.70;;;9.40;99.90;;;;;;4956404;29;20175;-59
2024/03/17 00:18:18;;;;;;;8.10;6.70;;;9.30;99.90;;;;;;4957114;29;20206;-59
2024/03/17 00:20:44;;;;;;;6.40;5.80;;;9.30;99.90;;;;;;4957079;29;20191;-59
2024/03/17 00:23:11;;;;;;;6.07;5.57;;;9.30;99.90;;;;;;4957060;29;20416;-59
2024/03/17 00:25:38;;;;;;;7.87;6.13;;;9.30;99.90;;;;;;4939939;29;20822;-59
2024/03/17 00:28:04;;;;;;;7.87;6.50;;;9.20;99.90;;;;;;4956082;29;20542;-59
2024/03/17 00:30:31;;;;;;;6.73;5.90;;;9.20;99.90;;;;;;4956894;29;20411;-59
2024/03/17 00:32:58;;;;;;;7.53;6.33;;;9.10;99.90;;;;;;4956258;29;20429;-59
2024/03/17 00:35:24;;;;;;;8.07;6.63;;;9.10;99.90;;;;;;4956865;29;20412;-59
2024/03/17 00:37:51;;;;;;;7.33;6.00;;;9.10;99.90;;;;;;4939108;29;20812;-59
2024/03/17 00:40:17;;;;;;;7.73;6.47;;;9.10;99.90;;;;;;4956637;29;20423;-59
2024/03/17 00:42:44;;;;;;;6.13;5.20;;;9.40;99.90;;;;;;4956649;29;20421;-59
2024/03/17 00:45:12;;;;;;;6.93;6.30;;;9.20;99.90;;;;;;4956097;29;20412;-59
2024/03/17 00:47:38;;;;;;;6.97;6.30;;;9.20;99.90;;;;;;4956663;29;20919;-59
2024/03/17 00:50:07;;;;;;;6.37;5.77;;;9.20;99.90;;;;;;4955674;29;20448;-59
2024/03/17 00:52:32;;;;;;;7.70;7.00;;;9.20;99.90;;;;;;4956175;29;20456;-60
2024/03/17 00:54:58;;;;;;;8.43;7.27;;;9.10;99.90;;;;;;4954275;28;20810;-61
2024/03/17 00:57:24;;;;;;;7.10;6.40;;;9.00;99.90;;;;;;4956418;29;20467;-60
2024/03/17 00:59:52;;;;;;;7.90;6.70;;;9.00;99.90;;;;;;4955774;29;20441;-60
2024/03/17 01:02:18;;;;;;;8.60;6.87;;;9.00;99.90;;;;;;4956414;29;20180;-59
2024/03/17 01:04:44;;;;;;;6.97;6.27;;;8.90;99.90;;;;;;4928064;29;20446;-60
2024/03/17 01:07:11;;;;;;;6.63;6.03;;;9.10;99.90;;;;;;4936523;29;20473;-60
2024/03/17 01:09:37;;;;;;;8.70;6.90;;;8.90;99.90;;;;;;4936997;29;20451;-60
2024/03/17 01:12:03;;;;;;;7.70;6.50;;;8.90;99.90;;;;;;4936446;29;20411;-60
2024/03/17 01:14:29;;;;;;;7.30;6.60;;;8.80;99.90;;;;;;4937112;29;20473;-60
2024/03/17 01:16:56;;;;;;;6.43;5.83;;;8.80;99.90;;;;;;4936121;29;20418;-60
2024/03/17 01:19:23;;;;;;;7.50;5.97;;;8.80;99.90;;;;;;4936759;29;20778;-60
2024/03/17 01:21:49;;;;;;;10.17;6.90;;;8.80;99.90;;;;;;4936339;29;20505;-60
2024/03/17 01:24:14;;;;;;;8.50;6.13;;;8.80;99.90;;;;;;4936585;29;20876;-60
2024/03/17 01:26:40;;;;;;;7.30;6.60;;;8.80;99.90;;;;;;4936722;29;20418;-60
2024/03/17 01:29:06;;;;;;;6.97;6.37;;;8.80;99.90;;;;;;4936266;29;20225;-60
2024/03/17 01:31:31;;;;;;;5.80;5.30;;;8.70;99.90;;;;;;4936700;29;20168;-60
2024/03/17 01:33:57;;;;;;;7.83;6.63;;;8.70;99.90;;;;;;4935835;29;21124;-60
2024/03/17 01:36:23;;;;;;;7.47;6.77;;;8.70;99.90;;;;;;4951571;29;20611;-60
2024/03/17 01:38:50;;;;;;;7.60;6.47;;;8.70;99.90;;;;;;4935863;29;20209;-60
2024/03/17 01:41:16;;;;;;;10.23;7.03;;;8.60;99.90;;;;;;4936294;29;20261;-60
2024/03/17 01:43:41;;;;;;;7.70;6.50;;;8.60;99.90;;;;;;4936151;29;20493;-60
2024/03/17 01:46:13;;;;;;;9.00;6.57;;;8.50;99.90;;;;;;4935606;29;20427;-60
2024/03/17 01:48:39;;;;;;;7.47;6.57;;;8.50;99.90;;;;;;4936411;29;20166;-60
2024/03/17 01:51:07;;;;;;;6.93;5.50;;;8.50;99.90;;;;;;4935114;29;20921;-60
2024/03/17 01:53:33;;;;;;;8.53;6.80;;;8.40;99.90;;;;;;4936299;29;20422;-60
2024/03/17 01:56:00;;;;;;;7.30;6.63;;;8.30;99.90;;;;;;4935587;29;20423;-60
2024/03/17 01:58:27;;;;;;;6.87;6.20;;;8.30;99.90;;;;;;4935864;29;20466;-60
2024/03/17 02:00:53;;;;;;;6.87;6.03;;;8.20;99.90;;;;;;4918474;29;20430;-60
2024/03/17 02:03:18;;;;;;;7.33;6.63;;;8.20;99.90;;;;;;4936131;29;20406;-60
2024/03/17 02:05:48;;;;;;;12.73;6.93;;;8.20;99.90;;;;;;4935248;29;20417;-60
2024/03/17 02:08:13;;;;;;;7.40;6.70;;;8.10;99.90;;;;;;4935493;29;20650;-60
2024/03/17 02:10:39;;;;;;;7.80;7.00;;;8.10;99.90;;;;;;4936279;29;20422;-60
2024/03/17 02:13:05;;;;;;;8.50;7.10;;;8.00;99.90;;;;;;4918268;29;20186;-60
2024/03/17 02:15:32;;;;;;;8.63;7.23;;;8.00;99.90;;;;;;4936112;29;20191;-60
2024/03/17 02:17:58;;;;;;;7.13;6.40;;;8.00;99.90;;;;;;4935223;29;20457;-60
2024/03/17 02:20:54;;;;;;;6.80;6.03;;;8.00;99.90;;;;;;4935122;29;20940;-60
2024/03/17 02:23:10;;;;;;;8.30;6.90;;;8.00;99.90;;;;;;4935252;29;20449;-60
2024/03/17 02:25:36;;;;;;;7.83;7.13;;;8.00;99.90;;;;;;4935739;29;20421;-60
2024/03/17 02:28:02;;;;;;;7.37;6.67;;;8.00;99.90;;;;;;4934871;29;20756;-60
2024/03/17 02:30:28;;;;;;;8.80;6.83;;;7.90;99.90;;;;;;4935677;29;20249;-60
2024/03/17 02:32:55;;;;;;;6.53;5.97;;;7.90;99.90;;;;;;4935050;29;20437;-60
2024/03/17 02:35:24;;;;;;;7.00;6.30;;;7.90;99.90;;;;;;4950310;29;20421;-60
2024/03/17 02:37:50;;;;;;;6.83;6.23;;;7.90;99.90;;;;;;4935163;29;20449;-60
2024/03/17 02:40:16;;;;;;;6.90;6.30;;;8.00;99.90;;;;;;4934813;29;20941;-60
2024/03/17 02:42:44;;;;;;;12.00;7.30;;;7.80;99.90;;;;;;4935691;29;20414;-60
2024/03/17 02:45:13;;;;;;;7.63;6.60;;;7.80;99.90;;;;;;4935275;29;20416;-60
2024/03/17 02:47:40;;;;;;;8.37;6.97;;;7.80;99.90;;;;;;4935223;29;21005;-60
2024/03/17 02:50:06;;;;;;;6.80;6.20;;;7.70;99.90;;;;;;4934901;29;20418;-60
2024/03/17 02:52:32;;;;;;;8.20;7.20;;;7.70;99.90;;;;;;4949848;29;20905;-60
2024/03/17 02:54:58;;;;;;;6.93;6.13;;;7.70;99.90;;;;;;4934600;29;20493;-60
2024/03/17 02:57:29;;;;;;;7.50;6.70;;;7.70;99.90;;;;;;4918102;29;20322;-60
2024/03/17 02:59:55;;;;;;;7.37;6.67;;;7.80;99.90;;;;;;4934903;29;20193;-60
2024/03/17 03:02:21;;;;;;;8.77;6.20;;;7.60;99.90;;;;;;4935299;29;20409;-60
2024/03/17 03:04:46;;;;;;;7.53;6.83;;;7.60;99.90;;;;;;4950073;29;20764;-60
2024/03/17 03:07:12;;;;;;;9.83;7.27;;;7.60;99.90;;;;;;4934285;29;20185;-60
2024/03/17 03:09:38;;;;;;;7.63;6.80;;;7.60;99.90;;;;;;4935187;29;20414;-60
2024/03/17 03:12:04;;;;;;;7.37;6.67;;;7.40;99.90;;;;;;4934662;29;20184;-60
2024/03/17 03:14:31;;;;;;;6.80;6.10;;;7.40;99.90;;;;;;4935146;29;20429;-60
2024/03/17 03:16:58;;;;;;;13.60;7.13;;;7.50;99.90;;;;;;4934578;29;20469;-60
2024/03/17 03:19:24;;;;;;;7.90;6.80;;;7.60;99.90;;;;;;4937823;29;20523;-60
2024/03/17 03:21:50;;;;;;;10.07;6.63;;;7.70;99.90;;;;;;4938543;29;20910;-60
2024/03/17 03:24:17;;;;;;;8.40;6.83;;;7.60;99.90;;;;;;4938412;29;20461;-60
2024/03/17 03:26:43;;;;;;;7.13;6.20;;;7.70;99.90;;;;;;4938858;29;20533;-60
2024/03/17 03:29:10;;;;;;;6.73;6.03;;;7.60;99.90;;;;;;4937900;29;20468;-60
2024/03/17 03:31:38;;;;;;;8.47;6.30;;;7.70;99.90;;;;;;4938750;29;20472;-59
2024/03/17 03:34:07;;;;;;;8.20;6.90;;;7.60;99.90;;;;;;4938287;29;20437;-60
2024/03/17 03:36:33;;;;;;;6.83;6.13;;;7.50;99.90;;;;;;4939224;29;20908;-60
2024/03/17 03:38:59;;;;;;;8.60;6.87;;;7.50;99.90;;;;;;4920723;29;20528;-60
2024/03/17 03:41:25;;;;;;;7.30;6.60;;;7.50;99.90;;;;;;4938511;29;20409;-60
2024/03/17 03:43:50;;;;;;;8.37;6.97;;;7.50;99.90;;;;;;4938692;29;20170;-60
2024/03/17 03:46:17;;;;;;;8.10;6.20;;;7.40;99.90;;;;;;4937841;29;20751;-60
2024/03/17 03:48:43;;;;;;;7.40;6.50;;;7.40;99.90;;;;;;4938571;29;20409;-60
2024/03/17 03:51:10;;;;;;;7.53;6.57;;;7.40;99.90;;;;;;4937928;29;20410;-60
2024/03/17 03:53:37;;;;;;;7.97;7.20;;;7.40;99.90;;;;;;4938293;29;20169;-60
2024/03/17 03:56:06;;;;;;;8.20;6.50;;;7.40;99.90;;;;;;4938101;29;20416;-60
2024/03/17 03:58:40;;;;;;;7.10;6.30;;;7.40;99.90;;;;;;4938317;29;20548;-60
2024/03/17 04:01:07;;;;;;;7.07;6.37;;;7.30;99.90;;;;;;4937794;29;20410;-60
2024/03/17 04:03:36;;;;;;;7.43;6.60;;;7.30;99.90;;;;;;4938491;29;20417;-60
2024/03/17 04:06:10;;;;;;;6.63;6.00;;;7.40;99.90;;;;;;4937697;29;20428;-60
2024/03/17 04:08:39;;;;;;;7.33;6.63;;;7.20;99.90;;;;;;4938169;29;20740;-60
2024/03/17 04:11:05;;;;;;;7.90;6.20;;;7.20;99.90;;;;;;4937563;29;20858;-60
2024/03/17 04:13:33;;;;;;;7.20;6.33;;;7.10;99.90;;;;;;4938082;29;20421;-60
2024/03/17 04:15:59;;;;;;;8.20;6.50;;;7.10;99.90;;;;;;4937453;29;20416;-60
2024/03/17 04:18:30;;;;;;;7.37;6.60;;;7.10;99.90;;;;;;4937976;29;20464;-60
2024/03/17 04:20:57;;;;;;;7.13;6.30;;;7.10;99.90;;;;;;4938057;29;20421;-60
2024/03/17 04:23:23;;;;;;;6.60;6.00;;;7.10;99.90;;;;;;4937387;29;20508;-60
2024/03/17 04:25:52;;;;;;;7.57;6.40;;;7.20;99.90;;;;;;4937308;29;20412;-60
2024/03/17 04:28:18;;;;;;;8.30;7.43;;;7.10;99.90;;;;;;4937009;29;20475;-60
2024/03/17 04:30:44;;;;;;;10.60;7.77;;;7.10;99.90;;;;;;4937543;29;20417;-60
2024/03/17 04:33:11;;;;;;;7.87;7.00;;;7.10;99.90;;;;;;4937470;29;20170;-59
2024/03/17 04:35:37;;;;;;;7.67;6.90;;;7.10;99.90;;;;;;4937795;29;20414;-60
2024/03/17 04:38:03;;;;;;;8.53;7.10;;;7.10;99.90;;;;;;4937117;29;20964;-60
2024/03/17 04:40:30;;;;;;;7.27;6.57;;;7.10;99.90;;;;;;4937476;29;20471;-60
2024/03/17 04:42:56;;;;;;;7.80;6.70;;;7.10;99.90;;;;;;4937656;29;20457;-60
2024/03/17 04:45:21;;;;;;;7.37;6.70;;;7.10;99.90;;;;;;4936988;29;20413;-60
2024/03/17 04:47:47;;;;;;;9.93;6.80;;;7.10;99.90;;;;;;4937592;29;20608;-60
2024/03/17 04:50:13;;;;;;;9.40;7.30;;;7.10;99.90;;;;;;4936987;29;20216;-60
2024/03/17 04:52:39;;;;;;;7.27;6.57;;;7.10;99.90;;;;;;4937484;29;20313;-60
2024/03/17 04:55:05;;;;;;;8.50;7.17;;;7.10;99.90;;;;;;4936495;29;20240;-60
2024/03/17 04:57:31;;;;;;;8.33;7.50;;;7.10;99.90;;;;;;4937421;29;20544;-60
2024/03/17 04:59:56;;;;;;;8.03;7.00;;;7.10;99.90;;;;;;4937295;29;20767;-59
2024/03/17 05:02:23;;;;;;;7.13;6.40;;;7.20;99.90;;;;;;4936707;29;20630;-60
2024/03/17 05:04:50;;;;;;;8.33;7.53;;;7.20;99.90;;;;;;4937244;29;20173;-60
2024/03/17 05:07:15;;;;;;;10.07;7.73;;;7.10;99.90;;;;;;4936568;29;20414;-60
2024/03/17 05:09:43;;;;;;;9.00;6.70;;;7.10;99.90;;;;;;4919864;29;20425;-60
2024/03/17 05:12:10;;;;;;;8.03;6.80;;;7.10;99.90;;;;;;4936410;29;20178;-60
2024/03/17 05:14:35;;;;;;;11.00;8.10;;;7.00;99.90;;;;;;4937288;29;20425;-60
2024/03/17 05:17:01;;;;;;;10.93;7.57;;;7.00;99.90;;;;;;4937036;29;20420;-60
2024/03/17 05:19:27;;;;;;;10.00;7.27;;;7.00;99.90;;;;;;4936827;29;20220;-60
2024/03/17 05:21:53;;;;;;;7.03;6.33;;;7.10;99.90;;;;;;4937205;29;20469;-60
2024/03/17 05:24:19;;;;;;;7.87;7.17;;;7.00;99.90;;;;;;4936298;29;20187;-60
2024/03/17 05:26:45;;;;;;;8.50;6.90;;;7.00;99.90;;;;;;4936421;29;20413;-60
2024/03/17 05:29:11;;;;;;;7.93;7.13;;;7.00;99.90;;;;;;4936215;29;20491;-60
2024/03/17 05:31:42;;;;;;;8.20;7.30;;;7.10;99.90;;;;;;4919899;29;20776;-60
2024/03/17 05:34:10;;;;;;;12.27;7.40;;;7.10;99.90;;;;;;4936170;29;20432;-60
2024/03/17 05:36:36;;;;;;;7.87;7.10;;;7.30;99.90;;;;;;4936931;29;20472;-60
2024/03/17 05:39:02;;;;;;;7.63;6.40;;;7.20;99.90;;;;;;4936332;29;20464;-60
2024/03/17 05:41:28;;;;;;;10.97;6.50;;;7.00;99.90;;;;;;4934831;29;20413;-60
2024/03/17 05:43:57;;;;;;;8.73;6.70;;;7.00;99.90;;;;;;4936495;29;20402;-60
2024/03/17 05:46:26;;;;;;;8.67;7.20;;;7.10;99.90;;;;;;4935861;29;21053;-59
2024/03/17 05:48:51;;;;;;;8.17;7.33;;;7.20;99.90;;;;;;4936419;29;20472;-60
2024/03/17 05:51:17;;;;;;;8.90;7.70;;;7.00;99.90;;;;;;4935777;29;20420;-60
2024/03/17 05:53:44;;;;;;;8.13;7.33;;;7.10;99.90;;;;;;4936810;29;20185;-60
2024/03/17 05:56:13;;;;;;;8.47;7.40;;;6.90;99.90;;;;;;4918060;29;20659;-60
2024/03/17 05:58:39;;;;;;;9.50;7.27;;;6.90;99.90;;;;;;4936072;29;20467;-59
2024/03/17 06:01:07;;;;;;;10.53;7.67;;;7.00;99.90;;;;;;4935618;29;20423;-60
2024/03/17 06:03:35;;;;;;;9.30;7.90;;;6.90;99.90;;;;;;4919181;29;20421;-60
2024/03/17 06:06:01;;;;;;;10.63;7.30;;;6.90;99.90;;;;;;4936340;29;20915;-60
2024/03/17 06:08:27;;;;;;;8.80;7.10;;;6.80;99.90;;;;;;4935488;29;20429;-60
2024/03/17 06:10:53;;;;;;;6.97;6.33;;;7.00;99.90;;;;;;4935556;29;20510;-60
2024/03/17 06:13:19;;;;;;;7.40;6.63;;;6.80;99.90;;;;;;4935395;29;20259;-60
2024/03/17 06:15:47;;;;;;;9.70;7.50;;;6.90;99.90;;;;;;4935915;29;20181;-60
2024/03/17 06:18:14;;;;;;;9.40;6.80;;;6.90;99.90;;;;;;4935237;29;20298;-60
2024/03/17 06:20:44;;;;;;;12.87;7.37;;;6.90;99.90;;;;;;4935950;29;20499;-60
2024/03/17 06:23:14;;;;;;;9.17;7.60;;;6.90;99.90;;;;;;4935402;29;20396;-60
2024/03/17 06:25:41;;;;;;;7.77;6.63;;;6.90;99.90;;;;;;4935889;29;20472;-60
2024/03/17 06:28:08;;;;;;;8.40;7.50;;;6.90;99.90;;;;;;4934670;29;20477;-60
2024/03/17 06:30:35;;;;;;;11.00;7.80;;;6.90;99.90;;;;;;4935804;29;20420;-60
2024/03/17 06:33:01;;;;;;;8.87;7.97;;;6.90;99.90;;;;;;4935748;29;20760;-60
2024/03/17 06:35:29;;;;;;;9.13;7.90;;;6.90;99.90;;;;;;4935281;29;20433;-60
2024/03/17 06:37:55;;;;;;;9.53;7.80;;;7.00;99.90;;;;;;4935576;29;20456;-60
2024/03/17 06:40:20;;;;;;;8.10;7.30;;;7.00;99.90;;;;;;4934860;29;20420;-60
2024/03/17 06:42:46;;;;;;;8.90;8.00;;;7.00;99.90;;;;;;4935428;29;20260;-60
2024/03/17 06:45:12;;;;;;;8.33;7.50;;;7.00;99.90;;;;;;4934968;29;20200;-60
2024/03/17 06:47:38;;;;;;;10.10;8.20;;;7.10;99.90;;;;;;4935517;29;20533;-60
2024/03/17 06:50:09;;;;;;;10.23;8.47;;;7.20;99.90;;;;;;4935459;29;20275;-60
2024/03/17 06:52:36;;;;;;;9.27;8.27;;;7.20;99.90;;;;;;4935538;29;20767;-60
2024/03/17 06:55:02;;;;;;;9.30;7.70;;;7.40;99.90;;;;;;4935327;29;20510;-60
2024/03/17 06:57:28;;;;;;;9.53;7.97;;;7.50;99.90;;;;;;4934684;29;20505;-60
2024/03/17 06:59:53;;;;;;;10.83;8.90;;;7.60;99.90;;;;;;4935305;29;20455;-60
2024/03/17 07:02:19;;;;;;;10.80;8.43;;;7.70;99.90;;;;;;4934456;29;20212;-60
2024/03/17 07:04:48;;;;;;;10.93;9.00;;;7.70;99.90;;;;;;4935570;29;20197;-60
2024/03/17 07:07:14;;;;;;;11.90;9.10;;;7.80;99.90;;;;;;4917649;29;20788;-60
2024/03/17 07:09:41;;;;;;;11.33;9.27;;;7.80;99.90;;;;;;4935259;29;20424;-60
2024/03/17 07:12:10;;;;;;;12.83;9.77;;;7.90;99.90;;;;;;4935632;29;20418;-60
2024/03/17 07:14:37;;;;;;;10.57;8.83;;;7.90;99.90;;;;;;4934858;29;20410;-60
2024/03/17 07:17:03;;;;;;;9.50;8.50;;;8.00;99.90;;;;;;4935329;29;20510;-60
2024/03/17 07:19:30;;;;;;;10.60;8.50;;;8.10;99.90;;;;;;4934479;29;20526;-60
2024/03/17 07:21:57;;;;;;;12.47;9.50;;;8.10;99.90;;;;;;4935158;29;20833;-60
2024/03/17 07:24:23;;;;;;;10.33;8.33;;;8.20;99.90;;;;;;4934501;29;20418;-60
2024/03/17 07:26:49;;;;;;;10.67;9.60;;;8.20;99.90;;;;;;4934873;29;20488;-60
2024/03/17 07:29:15;;;;;;;11.77;9.33;;;8.30;99.90;;;;;;4934102;29;20462;-60
2024/03/17 07:31:41;;;;;;;14.80;10.70;;;8.40;99.90;;;;;;4935116;29;20916;-60
2024/03/17 07:34:07;;;;;;;15.60;9.73;;;8.50;99.90;;;;;;4935051;29;20419;-60
2024/03/17 07:36:32;;;;;;;11.50;9.80;;;8.60;99.90;;;;;;4934366;29;20172;-60
2024/03/17 07:38:58;;;;;;;10.50;9.33;;;8.60;99.90;;;;;;4935080;29;20206;-60
2024/03/17 07:41:24;;;;;;;11.00;9.13;;;8.80;99.90;;;;;;4934256;29;20554;-60
2024/03/17 07:43:50;;;;;;;10.50;9.47;;;8.90;99.90;;;;;;4917860;29;20543;-60
2024/03/17 07:46:16;;;;;;;9.83;8.93;;;9.00;99.90;;;;;;4934374;29;20506;-60
2024/03/17 07:48:43;;;;;;;10.40;8.00;;;9.30;99.90;;;;;;4934798;29;20442;-60
2024/03/17 07:51:14;;;;;;;14.23;9.33;;;9.00;99.90;;;;;;4934916;29;20184;-60
2024/03/17 07:53:45;;;;;;;11.20;9.37;;;9.20;99.90;;;;;;4934884;29;20500;-60
2024/03/17 07:56:15;;;;;;;9.00;8.10;;;9.40;99.90;;;;;;4934851;29;20455;-60
2024/03/17 07:58:42;;;;;;;8.87;7.97;;;9.60;99.90;;;;;;4934769;29;20828;-60
2024/03/17 08:01:12;;;;;;;9.60;8.20;;;9.70;99.90;;;;;;4934863;29;20419;-60
2024/03/17 08:03:40;;;;;;;8.83;7.93;;;9.80;99.90;;;;;;4934795;29;20764;-60
2024/03/17 08:06:07;;;;;;;8.20;7.40;;;9.90;99.90;;;;;;4938186;29;20415;-60
2024/03/17 08:08:34;;;;;;;8.90;8.10;;;10.00;99.90;;;;;;4937532;29;20428;-60
2024/03/17 08:11:03;;;;;;;8.80;7.90;;;10.20;99.90;;;;;;4936684;29;20431;-60
2024/03/17 08:13:35;;;;;;;8.90;7.87;;;10.30;99.90;;;;;;4937583;29;20420;-60
2024/03/17 08:16:10;;;;;;;8.73;7.37;;;10.40;99.90;;;;;;4938045;29;20493;-60
2024/03/17 08:18:36;;;;;;;8.67;6.90;;;10.50;99.90;;;;;;4937316;29;20885;-60
2024/03/17 08:21:06;;;;;;;8.97;7.83;;;10.60;99.90;;;;;;4938035;29;20504;-60
2024/03/17 08:23:33;;;;;;;10.27;8.17;;;10.70;99.90;;;;;;4937367;29;20413;-60
2024/03/17 08:26:00;;;;;;;7.37;6.50;;;10.80;99.90;;;;;;4937931;29;20911;-60
2024/03/17 08:28:27;;;;;;;7.50;5.80;;;10.90;99.90;;;;;;4937406;29;20804;-60
2024/03/17 08:31:03;;;;;;;7.60;6.10;;;11.00;99.90;;;;;;4937494;29;20423;-60
2024/03/17 08:33:30;;;;;;;8.33;5.17;;;11.10;99.90;;;;;;4936459;29;20442;-60
2024/03/17 08:36:03;;;;;;;5.73;5.23;;;11.20;99.90;;;;;;4936748;29;20768;-60
2024/03/17 08:38:31;;;;;;;5.87;5.37;;;11.30;99.90;;;;;;4936378;29;20825;-60
2024/03/17 08:41:06;;;;;;;7.23;4.87;;;11.50;99.90;;;;;;4937300;29;20448;-60
2024/03/17 08:43:33;;;;;;;5.33;4.77;;;11.70;99.90;;;;;;4937121;29;20478;-60
2024/03/17 08:46:02;;;;;;;9.87;5.53;;;11.90;99.90;;;;;;4937417;29;20496;-60
2024/03/17 08:48:28;;;;;;;17.30;12.07;;;11.80;99.90;;;;;;4937006;29;20419;-61
2024/03/17 08:50:55;;;;;;;9.77;7.90;;;12.00;99.90;;;;;;4937339;29;20460;-60
2024/03/17 08:53:21;;;;;;;6.00;5.43;;;12.20;99.90;;;;;;4919275;29;21023;-60
2024/03/17 08:55:47;;;;;;;6.00;5.50;;;12.30;99.90;;;;;;4936886;29;20435;-60
2024/03/17 08:58:13;;;;;;;5.27;4.77;;;12.30;99.90;;;;;;4936727;29;20511;-60
2024/03/17 09:00:40;;;;;;;5.33;4.93;;;12.40;99.00;;;;;;4936277;29;20185;-60
2024/03/17 09:03:10;;;;;;;5.87;5.37;;;12.40;98.30;;;;;;4936751;29;20180;-60
2024/03/17 09:05:36;;;;;;;5.10;4.70;;;12.50;98.90;;;;;;4935788;29;20421;-60
2024/03/17 09:08:02;;;;;;;5.53;4.93;;;12.50;98.70;;;;;;4936701;29;20430;-60
2024/03/17 09:10:28;;;;;;;4.77;4.37;;;12.60;98.30;;;;;;4926912;29;20429;-60
2024/03/17 09:12:54;;;;;;;4.83;4.43;;;12.70;98.40;;;;;;4928339;29;20430;-60
2024/03/17 09:15:20;;;;;;;5.60;5.10;;;12.90;99.40;;;;;;4925423;29;20417;-61
2024/03/17 09:17:47;;;;;;;5.87;5.37;;;13.00;99.40;;;;;;4926037;29;20282;-60
2024/03/17 09:20:14;;;;;;;5.80;5.30;;;13.10;98.40;;;;;;4925566;29;20450;-60
2024/03/17 09:22:41;;;;;;;6.20;5.60;;;13.20;98.70;;;;;;4927317;29;20504;-59
2024/03/17 09:25:08;;;;;;;5.67;4.93;;;13.40;98.90;;;;;;4925302;29;20478;-60
2024/03/17 09:27:36;;;;;;;5.23;4.80;;;13.40;96.30;;;;;;4924513;29;20411;-59
2024/03/17 09:30:06;;;;;;;8.13;4.90;;;13.60;98.00;;;;;;4917934;29;20503;-60
2024/03/17 09:32:32;;;;;;;7.00;6.40;;;13.70;97.00;;;;;;4935205;29;20454;-60
2024/03/17 09:34:59;;;;;;;7.23;5.30;;;13.80;96.20;;;;;;4936031;29;20407;-60
2024/03/17 09:37:24;;;;;;;7.40;6.70;;;14.00;95.70;;;;;;4935440;29;20474;-60
2024/03/17 09:39:51;;;;;;;5.03;4.60;;;14.00;95.40;;;;;;4936100;29;20427;-60
2024/03/17 09:42:20;;;;;;;5.70;5.20;;;14.00;93.10;;;;;;4941649;29;20191;-60
2024/03/17 09:44:49;;;;;;;5.80;4.70;;;14.10;94.10;;;;;;4925009;29;20471;-60
2024/03/17 09:47:21;;;;;;;5.03;4.53;;;14.30;94.90;;;;;;4935271;29;20417;-60
2024/03/17 09:49:48;;;;;;;5.57;4.27;;;14.50;93.40;;;;;;4935652;29;20421;-60
2024/03/17 09:52:22;;;;;;;4.83;4.53;;;14.60;92.60;;;;;;4935858;29;20428;-60
2024/03/17 09:55:13;;;;;;;4.70;4.40;;;14.70;91.70;;;;;;4935836;29;20424;-59
2024/03/17 09:57:40;;;;;;;8.70;6.83;;;14.60;90.70;;;;;;4916791;29;20571;-60
2024/03/17 10:00:14;;;;;;;7.97;6.40;;;14.30;90.60;;;;;;4930011;29;20848;-60
2024/03/17 10:02:44;;;;;;;5.20;4.70;;;14.10;91.70;;;;;;4934949;29;20838;-60
2024/03/17 10:05:23;;;;;;;5.00;4.50;;;14.00;91.40;;;;;;4935142;29;20413;-60
2024/03/17 10:07:50;;;;;;;4.20;3.80;;;14.00;91.50;;;;;;4935642;29;20456;-60
2024/03/17 10:10:17;;;;;;;4.90;4.27;;;14.00;92.40;;;;;;4935906;29;20513;-59
2024/03/17 10:12:43;;;;;;;5.37;4.97;;;13.80;91.30;;;;;;4935428;29;20514;-60
2024/03/17 10:15:12;;;;;;;5.67;5.17;;;13.70;92.30;;;;;;4935878;29;20411;-60
2024/03/17 10:17:37;;;;;;;5.20;4.70;;;13.80;92.10;;;;;;4934966;29;21193;-60
2024/03/17 10:20:15;;;;;;;4.80;4.40;;;13.70;91.90;;;;;;4935892;29;20441;-59
2024/03/17 10:23:03;;;;;;;4.20;3.90;;;13.70;92.00;;;;;;4918661;29;20166;-60
2024/03/17 10:25:32;;;;;;;4.73;4.33;;;13.90;92.70;;;;;;4934972;29;20409;-60
2024/03/17 10:27:58;;;;;;;4.23;3.93;;;14.00;92.80;;;;;;4934853;29;20477;-59
2024/03/17 10:30:26;;;;;;;5.23;4.70;;;14.10;92.60;;;;;;4935150;29;20447;-60
2024/03/17 10:33:00;;;;;;;4.97;4.27;;;14.20;92.60;;;;;;4935739;29;20489;-59
2024/03/17 10:35:31;;;;;;;5.13;4.63;;;14.20;92.00;;;;;;4934334;29;20419;-60
2024/03/17 10:37:58;;;;;;;5.67;5.23;;;14.30;92.40;;;;;;4934803;29;20907;-60
2024/03/17 10:40:25;;;;;;;9.20;8.23;;;14.30;92.70;;;;;;4917470;29;20464;-59
2024/03/17 10:42:52;;;;;;;5.50;5.10;;;14.30;92.00;;;;;;4949999;29;20425;-59
2024/03/17 10:45:18;;;;;;;5.20;4.80;;;14.30;92.60;;;;;;4924395;29;20432;-65
2024/03/17 10:47:48;;;;;;;4.87;4.40;;;14.20;92.50;;;;;;4916221;29;20443;-59
2024/03/17 10:50:18;;;;;;;5.47;4.97;;;14.20;92.40;;;;;;4916787;29;20436;-59
2024/03/17 10:52:46;;;;;;;5.57;4.90;;;14.20;92.40;;;;;;4926006;29;20410;-59
2024/03/17 10:55:19;;;;;;;4.87;4.50;;;14.10;91.90;;;;;;4926525;29;20450;-59
2024/03/17 10:57:49;;;;;;;9.83;5.57;;;14.00;92.60;;;;;;4904170;29;20463;-59
2024/03/17 11:00:19;;;;;;;5.27;4.40;;;14.00;91.80;;;;;;4916410;29;20431;-59
2024/03/17 11:02:46;;;;;;;5.50;5.00;;;14.10;92.70;;;;;;4916284;29;20830;-59
2024/03/17 11:05:16;;;;;;;7.03;5.00;;;14.20;92.90;;;;;;4916338;29;20420;-60
2024/03/17 11:07:46;;;;;;;5.50;5.00;;;14.30;92.20;;;;;;4923275;29;20422;-60
2024/03/17 11:10:28;;;;;;;6.27;5.47;;;14.20;92.50;;;;;;4908762;29;20415;-59
2024/03/17 11:12:56;;;;;;;5.33;4.93;;;14.10;91.90;;;;;;4934368;29;20462;-59
2024/03/17 11:15:40;;;;;;;5.50;5.03;;;14.10;92.20;;;;;;4934271;29;20412;-60
2024/03/17 11:18:09;;;;;;;5.57;5.07;;;14.20;93.20;;;;;;4932590;29;20792;-59
2024/03/17 11:20:37;;;;;;;6.50;5.90;;;14.40;93.10;;;;;;4933379;29;20424;-59
2024/03/17 11:23:03;;;;;;;5.83;5.43;;;14.40;92.00;;;;;;4934384;29;20411;-59
2024/03/17 11:25:33;;;;;;;6.50;5.90;;;14.60;92.70;;;;;;4933747;29;20415;-59
2024/03/17 11:28:00;;;;;;;5.13;4.83;;;14.60;92.00;;;;;;4934113;29;20476;-59
2024/03/17 11:30:43;;;;;;;6.37;5.90;;;14.80;92.90;;;;;;4934579;29;20511;-60
2024/03/17 11:33:30;;;;;;;6.30;5.80;;;14.90;92.00;;;;;;4917721;29;20425;-59
2024/03/17 11:36:21;;;;;;;5.60;5.10;;;15.10;92.10;;;;;;4917891;29;20769;-59
2024/03/17 11:38:53;;;;;;;6.20;5.60;;;15.20;92.20;;;;;;4934777;29;20457;-59
2024/03/17 11:41:37;;;;;;;5.90;5.30;;;15.30;91.00;;;;;;4938820;29;20752;-59
2024/03/17 11:44:29;;;;;;;5.87;5.33;;;15.40;92.10;;;;;;4938258;29;20456;-59
2024/03/17 11:47:01;;;;;;;5.97;5.40;;;15.60;91.60;;;;;;4938804;29;20409;-60
2024/03/17 11:49:29;;;;;;;5.90;5.40;;;15.60;90.80;;;;;;4937686;29;20445;-59
2024/03/17 11:51:57;;;;;;;5.47;5.07;;;15.70;90.70;;;;;;4938606;29;20426;-59
2024/03/17 11:54:27;;;;;;;6.47;5.90;;;15.70;90.70;;;;;;4938011;29;20814;-60
2024/03/17 11:56:54;;;;;;;8.10;6.10;;;15.50;88.50;;;;;;4938129;29;20425;-62
2024/03/17 11:59:22;;;;;;;6.60;5.97;;;15.40;90.70;;;;;;4938159;29;20463;-60
2024/03/17 12:01:52;;;;;;;5.70;4.90;;;15.50;90.30;;;;;;4938308;29;20526;-60
2024/03/17 12:04:20;;;;;;;5.90;5.50;;;15.60;91.00;;;;;;4938454;29;20425;-59
2024/03/17 12:06:50;;;;;;;6.90;5.70;;;15.70;90.90;;;;;;4937828;29;20444;-59
2024/03/17 12:09:24;;;;;;;5.23;4.83;;;15.50;88.70;;;;;;4938008;29;20413;-59
2024/03/17 12:12:08;;;;;;;6.73;6.00;;;15.30;90.40;;;;;;4938126;29;20448;-59
2024/03/17 12:14:36;;;;;;;6.33;5.73;;;15.50;91.10;;;;;;4937750;29;20405;-59
2024/03/17 12:17:04;;;;;;;5.77;5.37;;;15.50;90.90;;;;;;4938167;29;20425;-60
2024/03/17 12:19:30;;;;;;;5.80;5.30;;;15.60;91.10;;;;;;4937206;29;20464;-59
2024/03/17 12:21:58;;;;;;;4.93;4.63;;;15.70;90.70;;;;;;4937907;29;20414;-59
2024/03/17 12:24:34;;;;;;;5.40;5.00;;;15.80;90.50;;;;;;4937867;29;20853;-62
2024/03/17 12:27:03;;;;;;;6.40;5.90;;;15.80;90.40;;;;;;4937917;29;20459;-63
2024/03/17 12:29:35;;;;;;;5.23;4.83;;;15.90;90.50;;;;;;4936422;29;20472;-63
2024/03/17 12:32:05;;;;;;;5.77;5.20;;;15.70;90.00;;;;;;4937788;29;20480;-63
2024/03/17 12:34:32;;;;;;;5.20;4.80;;;15.80;90.10;;;;;;4936870;29;20418;-63
2024/03/17 12:36:59;;;;;;;6.57;5.80;;;16.00;90.50;;;;;;4937672;29;20444;-63
2024/03/17 12:39:33;;;;;;;5.30;4.80;;;16.00;89.40;;;;;;4937596;29;20494;-64
2024/03/17 12:42:13;;;;;;;5.60;5.10;;;16.00;89.70;;;;;;4931654;29;20426;-62
2024/03/17 12:44:46;;;;;;;5.83;5.20;;;16.10;89.10;;;;;;4917805;29;20850;-62
2024/03/17 12:47:19;;;;;;;5.60;5.10;;;16.20;89.60;;;;;;4918366;29;20489;-63
2024/03/17 12:49:53;;;;;;;5.60;5.20;;;16.30;88.70;;;;;;4917812;29;20494;-61
2024/03/17 12:52:27;;;;;;;6.00;5.50;;;16.40;89.50;;;;;;4918571;29;20410;-62
2024/03/17 13:01:00;;;;;;;5.90;5.50;;;15.70;90.10;;;;;;4917805;29;20422;-62
2024/03/17 13:03:27;;;;;;;6.07;5.57;;;15.80;90.20;;;;;;4932816;29;20426;-61